Time;durP1;ratioP1;P1;durP2;ratioP2;P2;SDS_P1;SDS_P2;PMS_P1;PMS_P2;Temp;Humidity;BMP_temperature;BMP_pressure;BME280_temperature;BME280_humidity;BME280_pressure;Samples;Min_cycle;Max_cycle;Signal;HPM_P1;HPM_P2
2021/05/15 00:00:26;;;;;;;;;;;;;;;7.34;90.69;100342.88;5091510;28;19955;-65
2021/05/15 00:02:51;;;;;;;28.67;13.27;;;;;;;7.28;90.73;100346.16;5090962;28;20290;-65
2021/05/15 00:05:17;;;;;;;22.43;12.70;;;;;;;7.30;90.50;100341.50;5091103;28;20093;-65
2021/05/15 00:07:42;;;;;;;28.83;13.80;;;;;;;7.34;90.68;100347.38;5073006;28;20536;-65
2021/05/15 00:10:08;;;;;;;29.10;12.97;;;;;;;7.35;90.69;100351.69;5090951;28;20066;-65
2021/05/15 00:12:33;;;;;;;30.52;12.13;;;;;;;7.33;90.85;100353.69;5091130;28;20039;-65
2021/05/15 00:14:58;;;;;;;33.00;15.07;;;;;;;7.33;90.73;100348.38;5073066;28;20051;-65
2021/05/15 00:17:24;;;;;;;31.43;13.10;;;;;;;7.31;90.89;100345.03;5094556;28;20358;-65
2021/05/15 00:19:49;;;;;;;31.23;12.70;;;;;;;7.30;91.12;100354.78;5094853;28;20067;-65
2021/05/15 00:22:15;;;;;;;31.80;12.63;;;;;;;7.29;90.20;100347.81;5077153;28;20043;-65
2021/05/15 00:24:40;;;;;;;25.73;14.47;;;;;;;7.34;89.97;100352.69;5076993;28;20076;-65
2021/05/15 00:27:06;;;;;;;32.07;15.97;;;;;;;7.27;89.72;100347.13;5094684;28;20031;-65
2021/05/15 00:29:31;;;;;;;43.13;16.23;;;;;;;7.27;90.54;100344.47;5076452;28;20323;-65
2021/05/15 00:31:56;;;;;;;33.53;14.43;;;;;;;7.28;90.45;100346.16;5094781;28;20464;-65
2021/05/15 00:34:22;;;;;;;37.73;17.00;;;;;;;7.34;90.20;100350.03;5076939;28;20106;-65
2021/05/15 00:36:48;;;;;;;39.13;16.63;;;;;;;7.35;90.34;100355.19;5076602;28;20043;-65
2021/05/15 00:39:14;;;;;;;39.58;16.30;;;;;;;7.31;90.13;100348.50;5094337;28;20364;-65
2021/05/15 00:41:40;;;;;;;32.58;14.35;;;;;;;7.32;89.58;100349.34;5094378;28;20032;-65
2021/05/15 00:44:29;;;;;;;34.05;15.95;;;;;;;7.34;89.59;100350.03;5076474;28;20042;-65
2021/05/15 00:46:54;;;;;;;26.25;13.88;;;;;;;7.42;89.07;100346.59;5094453;28;20044;-72
2021/05/15 00:49:19;;;;;;;43.30;16.20;;;;;;;7.38;89.22;100340.78;5094168;28;20036;-65
2021/05/15 00:51:45;;;;;;;32.27;14.27;;;;;;;7.38;89.47;100351.41;5094329;28;20471;-65
2021/05/15 00:54:11;;;;;;;36.07;15.33;;;;;;;7.27;89.86;100351.59;5076423;28;20035;-65
2021/05/15 00:56:36;;;;;;;30.27;13.30;;;;;;;7.29;90.04;100347.00;5059587;28;20514;-65
2021/05/15 00:59:02;;;;;;;31.77;14.93;;;;;;;7.33;89.55;100343.88;5094017;28;20101;-65
2021/05/15 01:01:28;;;;;;;36.55;14.25;;;;;;;7.25;89.67;100338.47;5076307;28;20031;-65
2021/05/15 01:03:53;;;;;;;36.27;15.83;;;;;;;7.27;89.65;100333.03;5094128;28;20032;-65
2021/05/15 01:06:19;;;;;;;33.63;14.03;;;;;;;7.27;90.00;100338.34;5076189;28;20043;-65
2021/05/15 01:08:47;;;;;;;35.85;13.35;;;;;;;7.33;89.93;100346.53;5093653;28;20031;-65
2021/05/15 01:11:14;;;;;;;26.33;13.70;;;;;;;7.33;89.53;100349.19;5093848;28;20400;-65
2021/05/15 01:13:39;;;;;;;40.20;15.48;;;;;;;7.33;89.28;100353.69;5051368;28;20032;-65
2021/05/15 01:16:05;;;;;;;40.47;15.43;;;;;;;7.33;89.41;100351.84;5093901;28;20039;-65
2021/05/15 01:18:31;;;;;;;28.38;13.95;;;;;;;7.35;89.36;100351.69;5093574;28;20114;-65
2021/05/15 01:21:01;;;;;;;27.07;13.20;;;;;;;7.35;89.52;100351.69;5075889;28;20170;-65
2021/05/15 01:23:26;;;;;;;27.20;12.80;;;;;;;7.34;89.13;100347.38;5093482;28;20036;-65
2021/05/15 01:25:51;;;;;;;26.10;13.27;;;;;;;7.30;89.28;100353.97;5076012;28;20043;-65
2021/05/15 01:28:17;;;;;;;32.70;14.93;;;;;;;7.30;89.52;100348.66;5092263;28;20059;-72
2021/05/15 01:30:42;;;;;;;29.53;15.40;;;;;;;7.23;89.35;100353.72;5075946;28;20028;-71
2021/05/15 01:33:08;;;;;;;38.50;14.70;;;;;;;7.29;89.80;100352.31;5093600;28;20043;-71
2021/05/15 01:35:33;;;;;;;26.55;12.75;;;;;;;7.29;89.83;100353.13;5075701;28;20058;-65
2021/05/15 01:37:58;;;;;;;35.57;14.33;;;;;;;7.27;89.80;100354.28;5075430;28;20476;-65
2021/05/15 01:40:24;;;;;;;26.93;12.43;;;;;;;7.32;89.76;100352.00;5093492;28;20031;-65
2021/05/15 01:42:49;;;;;;;27.87;14.37;;;;;;;7.27;89.80;100352.44;5093412;28;20028;-65
2021/05/15 01:45:15;;;;;;;29.67;12.07;;;;;;;7.24;89.08;100349.28;5075558;28;20032;-65
2021/05/15 01:47:40;;;;;;;21.17;9.73;;;;;;;7.18;88.16;100346.19;5075193;28;20032;-65
2021/05/15 01:50:08;;;;;;;23.33;9.97;;;;;;;7.06;87.31;100336.78;5075385;28;20046;-65
2021/05/15 01:52:33;;;;;;;18.90;8.05;;;;;;;7.02;86.97;100335.41;5058672;28;20047;-65
2021/05/15 01:54:59;;;;;;;23.83;9.33;;;;;;;7.13;87.52;100337.84;5093148;28;20032;-65
2021/05/15 01:57:24;;;;;;;22.02;9.23;;;;;;;7.10;87.10;100338.16;5092875;28;20286;-71
2021/05/15 01:59:50;;;;;;;20.60;9.23;;;;;;;7.06;87.16;100331.47;5092941;28;20043;-71
2021/05/15 02:02:15;;;;;;;19.87;9.93;;;;;;;7.07;87.33;100341.13;5075292;28;20481;-71
2021/05/15 02:04:40;;;;;;;26.47;10.13;;;;;;;7.14;87.88;100334.25;5091890;28;20484;-71
2021/05/15 02:07:06;;;;;;;20.93;10.10;;;;;;;7.04;87.43;100328.13;5058424;28;20858;-71
2021/05/15 02:09:31;;;;;;;22.40;8.87;;;;;;;7.07;88.15;100334.97;5092556;28;20130;-71
2021/05/15 02:11:56;;;;;;;19.50;9.80;;;;;;;7.02;88.48;100323.97;5092789;28;20397;-71
2021/05/15 02:14:22;;;;;;;26.27;10.00;;;;;;;7.12;88.71;100324.75;5092765;28;20419;-71
2021/05/15 02:16:47;;;;;;;22.57;10.10;;;;;;;7.13;87.77;100321.94;5075030;28;20599;-72
2021/05/15 02:19:12;;;;;;;22.47;9.57;;;;;;;7.14;87.58;100317.44;5092361;28;20347;-72
2021/05/15 02:21:38;;;;;;;19.17;9.30;;;;;;;7.10;87.85;100319.59;5074729;28;20036;-71
2021/05/15 02:24:04;;;;;;;19.77;9.57;;;;;;;7.01;87.85;100320.47;5092574;28;20077;-72
2021/05/15 02:26:29;;;;;;;18.20;9.38;;;;;;;7.07;87.88;100309.28;5074813;28;20286;-72
2021/05/15 02:28:55;;;;;;;18.43;8.63;;;;;;;7.04;87.46;100311.38;5074352;28;20089;-72
2021/05/15 02:31:20;;;;;;;20.70;9.37;;;;;;;7.03;88.14;100310.56;5074655;28;20036;-71
2021/05/15 02:33:45;;;;;;;16.53;9.23;;;;;;;7.03;87.71;100320.34;5091372;28;20032;-71
2021/05/15 02:36:11;;;;;;;19.57;9.30;;;;;;;7.00;87.79;100313.53;5074498;28;20158;-71
2021/05/15 02:38:36;;;;;;;19.30;9.47;;;;;;;7.02;87.62;100323.97;5073911;28;20079;-71
2021/05/15 02:41:01;;;;;;;22.27;9.23;;;;;;;7.01;87.65;100317.84;5074641;28;20044;-71
2021/05/15 02:43:27;;;;;;;18.07;9.13;;;;;;;7.01;87.33;100314.34;5092235;28;20062;-71
2021/05/15 02:45:52;;;;;;;20.40;8.70;;;;;;;6.98;87.47;100316.31;5091239;28;20139;-72
2021/05/15 02:48:18;;;;;;;19.30;8.93;;;;;;;7.01;87.36;100317.00;5074115;28;20290;-72
2021/05/15 02:50:48;;;;;;;14.23;7.97;;;;;;;6.93;86.76;100321.25;5074178;28;20452;-71
2021/05/15 02:53:14;;;;;;;17.35;8.88;;;;;;;7.02;87.18;100311.53;5092135;28;20042;-71
2021/05/15 02:55:40;;;;;;;22.70;11.18;;;;;;;7.00;87.19;100316.16;5074178;28;20039;-71
2021/05/15 02:58:06;;;;;;;21.67;9.57;;;;;;;6.98;87.02;100310.19;5057365;28;20692;-71
2021/05/15 03:00:31;;;;;;;22.55;9.77;;;;;;;6.99;87.14;100309.19;5091870;28;20109;-72
2021/05/15 03:02:57;;;;;;;17.37;9.83;;;;;;;6.96;86.77;100312.97;5057461;28;20036;-71
2021/05/15 03:05:24;;;;;;;19.93;7.97;;;;;;;7.01;87.01;100306.38;5091698;28;20446;-72
2021/05/15 03:07:50;;;;;;;15.15;8.50;;;;;;;6.82;86.12;100296.72;5091503;28;20065;-72
2021/05/15 03:10:17;;;;;;;21.23;9.27;;;;;;;6.81;86.87;100300.34;5090764;28;20461;-72
2021/05/15 03:12:43;;;;;;;19.50;9.13;;;;;;;6.90;87.45;100296.81;5091704;28;20365;-72
2021/05/15 03:15:11;;;;;;;17.33;9.53;;;;;;;6.92;87.60;100300.16;5091570;28;20040;-72
2021/05/15 03:17:38;;;;;;;22.25;9.25;;;;;;;6.95;87.13;100295.38;5073394;28;20040;-72
2021/05/15 03:20:06;;;;;;;22.25;10.60;;;;;;;6.92;86.99;100300.97;5091600;28;20421;-72
2021/05/15 03:22:31;;;;;;;16.33;8.00;;;;;;;6.95;86.52;100298.03;5073695;28;20043;-72
2021/05/15 03:24:56;;;;;;;17.07;9.63;;;;;;;6.94;86.88;100306.97;5073794;28;20032;-72
2021/05/15 03:27:22;;;;;;;20.98;9.10;;;;;;;6.90;86.87;100305.59;5073726;28;20039;-72
2021/05/15 03:29:48;;;;;;;19.85;9.88;;;;;;;6.94;87.36;100306.16;5091280;28;20036;-72
2021/05/15 03:32:13;;;;;;;17.47;9.10;;;;;;;7.00;87.70;100305.56;5091379;28;20032;-71
2021/05/15 03:34:39;;;;;;;18.17;9.68;;;;;;;6.93;87.40;100305.31;5091282;28;20032;-71
2021/05/15 03:37:04;;;;;;;20.43;9.33;;;;;;;6.85;86.68;100296.41;5073560;28;20044;-72
2021/05/15 03:39:30;;;;;;;23.33;8.87;;;;;;;6.94;86.81;100304.31;5091051;28;20040;-72
2021/05/15 03:41:55;;;;;;;17.40;9.63;;;;;;;6.92;86.71;100302.81;5091246;28;20034;-72
2021/05/15 03:44:21;;;;;;;16.03;9.43;;;;;;;6.98;86.35;100303.03;5091205;28;20628;-72
2021/05/15 03:46:46;;;;;;;20.00;9.07;;;;;;;6.98;86.21;100303.03;5056698;28;20050;-72
2021/05/15 03:49:11;;;;;;;27.67;10.07;;;;;;;7.02;86.45;100300.91;5073120;28;20067;-72
2021/05/15 03:51:38;;;;;;;20.57;10.10;;;;;;;7.02;86.24;100308.03;5096187;28;20040;-72
2021/05/15 03:54:03;;;;;;;21.70;9.68;;;;;;;6.86;85.63;100303.38;5080015;28;20036;-72
2021/05/15 03:56:29;;;;;;;25.77;10.50;;;;;;;6.87;86.14;100305.91;5097954;28;20032;-72
2021/05/15 03:58:54;;;;;;;20.02;10.32;;;;;;;6.90;86.40;100308.25;5063138;28;20445;-73
2021/05/15 04:01:23;;;;;;;25.10;11.47;;;;;;;6.86;86.23;100308.69;5097875;28;20035;-73
2021/05/15 04:03:48;;;;;;;20.98;9.60;;;;;;;6.85;86.08;100307.03;5079855;28;20040;-72
2021/05/15 04:06:14;;;;;;;19.95;10.75;;;;;;;6.78;85.52;100316.56;5096929;28;20093;-72
2021/05/15 04:08:40;;;;;;;21.27;9.15;;;;;;;6.91;85.25;100312.59;5097581;28;20032;-72
2021/05/15 04:11:05;;;;;;;16.17;9.23;;;;;;;6.92;85.77;100313.41;5097733;28;20517;-72
2021/05/15 04:13:45;;;;;;;23.03;9.73;;;;;;;6.83;85.58;100309.81;5063278;28;20035;-73
2021/05/15 04:16:14;;;;;;;21.05;9.93;;;;;;;6.74;85.13;100316.03;5097625;28;20028;-73
2021/05/15 04:18:40;;;;;;;17.05;10.02;;;;;;;6.78;84.54;100316.56;5097647;28;20076;-72
2021/05/15 04:21:06;;;;;;;16.37;9.50;;;;;;;6.78;84.48;100313.94;5079936;28;20460;-72
2021/05/15 04:23:31;;;;;;;22.10;10.43;;;;;;;6.81;84.98;100305.66;5097642;28;20047;-72
2021/05/15 04:25:58;;;;;;;16.97;9.70;;;;;;;6.85;85.24;100307.03;5079875;28;20047;-72
2021/05/15 04:28:24;;;;;;;19.90;9.20;;;;;;;6.86;85.23;100314.00;5097359;28;20346;-72
2021/05/15 04:30:49;;;;;;;16.23;8.60;;;;;;;6.93;85.11;100315.06;5097482;28;20051;-72
2021/05/15 04:33:15;;;;;;;18.47;7.77;;;;;;;6.86;83.72;100304.25;5079851;28;20428;-72
2021/05/15 04:35:40;;;;;;;17.83;9.33;;;;;;;6.85;83.85;100304.38;5079797;28;20126;-72
2021/05/15 04:38:07;;;;;;;11.97;7.27;;;;;;;6.89;83.21;100311.06;5062748;28;20036;-72
2021/05/15 04:40:34;;;;;;;20.65;9.73;;;;;;;6.98;84.23;100305.69;5097557;28;20044;-72
2021/05/15 04:43:00;;;;;;;17.85;9.35;;;;;;;6.91;83.70;100312.59;5097413;28;20050;-72
2021/05/15 04:45:31;;;;;;;17.50;8.30;;;;;;;6.94;83.22;100308.81;5062859;28;20524;-72
2021/05/15 04:47:58;;;;;;;15.88;8.55;;;;;;;6.97;82.94;100306.66;5097234;28;20039;-72
2021/05/15 04:50:23;;;;;;;14.68;7.00;;;;;;;6.97;82.73;100305.84;5097531;28;20036;-72
2021/05/15 04:52:49;;;;;;;17.63;7.27;;;;;;;6.95;83.27;100303.34;5097391;28;20042;-72
2021/05/15 04:55:14;;;;;;;13.63;6.57;;;;;;;7.02;82.49;100303.56;5079542;28;20057;-72
2021/05/15 04:57:39;;;;;;;11.20;6.87;;;;;;;7.03;82.04;100305.25;5096862;28;20035;-72
2021/05/15 05:00:05;;;;;;;14.07;6.83;;;;;;;6.97;81.58;100300.53;5097248;28;20036;-72
2021/05/15 05:02:31;;;;;;;20.85;7.88;;;;;;;7.06;81.84;100304.94;5077498;28;20407;-72
2021/05/15 05:04:56;;;;;;;12.27;6.27;;;;;;;7.09;81.05;100299.31;5093258;28;20054;-72
2021/05/15 05:07:22;;;;;;;14.33;6.90;;;;;;;7.06;81.34;100302.28;5094077;28;20270;-72
2021/05/15 05:09:47;;;;;;;13.37;7.07;;;;;;;7.01;80.71;100307.22;5076050;28;20488;-72
2021/05/15 05:12:12;;;;;;;14.53;6.43;;;;;;;7.01;81.41;100301.91;5093975;28;20477;-72
2021/05/15 05:14:38;;;;;;;16.23;7.83;;;;;;;6.99;81.43;100306.53;5093078;28;20453;-72
2021/05/15 05:17:05;;;;;;;18.38;7.40;;;;;;;7.06;81.57;100310.25;5092305;28;20039;-72
2021/05/15 05:19:30;;;;;;;;;;;;;;;7.14;81.25;100310.34;5074425;28;20035;-72
2021/05/15 05:21:55;;;;;;;;;;;;;;;7.12;81.15;100309.66;5074799;28;19923;-72
2021/05/15 05:24:21;;;;;;;16.20;6.27;;;;;;;7.21;81.03;100310.56;5091975;28;19920;-72
2021/05/15 05:26:47;;;;;;;14.38;7.85;;;;;;;7.15;81.51;100306.69;5092120;28;20115;-72
2021/05/15 05:29:12;;;;;;;15.30;6.90;;;;;;;7.15;80.85;100316.47;5057512;28;20046;-72
2021/05/15 05:31:43;;;;;;;11.97;6.87;;;;;;;7.24;79.77;100306.78;5093664;28;20102;-72
2021/05/15 05:34:09;;;;;;;12.60;6.05;;;;;;;7.16;79.58;100311.03;5093413;28;20086;-72
2021/05/15 05:36:36;;;;;;;15.13;6.32;;;;;;;7.21;80.46;100315.03;5075638;28;20121;-72
2021/05/15 05:39:12;;;;;;;11.50;6.38;;;;;;;7.23;79.99;100305.94;5092222;28;20044;-73
2021/05/15 05:41:38;;;;;;;13.93;6.80;;;;;;;7.40;80.20;100306.94;5058855;28;20051;-72
2021/05/15 05:44:04;;;;;;;14.23;6.07;;;;;;;7.33;79.34;100316.50;5092898;28;20043;-72
2021/05/15 05:46:30;;;;;;;10.35;6.35;;;;;;;7.41;78.70;100308.59;5073992;28;20039;-72
2021/05/15 05:48:56;;;;;;;13.93;6.05;;;;;;;7.60;77.59;100300.44;5091314;28;20042;-72
2021/05/15 05:51:21;;;;;;;13.70;6.10;;;;;;;8.12;81.15;100301.47;5073869;28;20109;-72
2021/05/15 05:53:46;;;;;;;10.07;6.40;;;;;;;8.19;77.69;100308.66;5073622;28;20127;-72
2021/05/15 05:56:12;;;;;;;10.50;5.87;;;;;;;7.79;75.77;100302.06;5091258;28;20511;-72
2021/05/15 05:58:37;;;;;;;12.53;6.37;;;;;;;7.92;77.93;100312.31;5092302;28;20024;-72
2021/05/15 06:01:03;;;;;;;12.27;6.57;;;;;;;7.75;75.91;100307.84;5093019;28;20055;-72
2021/05/15 06:03:28;;;;;;;15.13;7.63;;;;;;;7.73;76.77;100317.81;5075260;28;20039;-73
2021/05/15 06:05:53;;;;;;;16.17;9.17;;;;;;;7.53;77.34;100312.66;5092934;28;20032;-72
2021/05/15 06:08:19;;;;;;;16.80;10.10;;;;;;;7.83;77.60;100315.91;5092704;28;20445;-72
2021/05/15 06:10:47;;;;;;;14.00;7.17;;;;;;;8.04;78.29;100321.69;5071798;28;20342;-72
2021/05/15 06:13:14;;;;;;;17.08;9.93;;;;;;;8.26;77.55;100322.16;5070365;28;20742;-73
2021/05/15 06:15:39;;;;;;;20.52;9.93;;;;;;;8.24;75.99;100318.81;5072951;28;20115;-73
2021/05/15 06:18:05;;;;;;;19.50;9.30;;;;;;;7.95;77.43;100308.50;5091606;28;20437;-73
2021/05/15 06:20:30;;;;;;;16.37;10.23;;;;;;;7.95;77.89;100309.34;5065164;28;20039;-73
2021/05/15 06:22:56;;;;;;;17.13;9.35;;;;;;;8.16;76.89;100324.91;5069495;28;20214;-73
2021/05/15 06:25:22;;;;;;;21.42;9.98;;;;;;;8.10;75.74;100317.59;5092515;28;20055;-73
2021/05/15 06:27:47;;;;;;;25.20;11.65;;;;;;;7.78;75.97;100315.53;5090974;28;20084;-73
2021/05/15 06:30:14;;;;;;;23.20;11.50;;;;;;;7.89;78.07;100322.41;5077619;28;20043;-73
2021/05/15 06:32:39;;;;;;;22.30;11.05;;;;;;;7.65;77.15;100317.75;5074474;28;20508;-73
2021/05/15 06:35:06;;;;;;;21.03;10.03;;;;;;;7.81;78.20;100329.34;5086094;28;20132;-72
2021/05/15 06:37:31;;;;;;;20.42;10.95;;;;;;;7.75;77.76;100319.34;5096029;28;20310;-73
2021/05/15 06:39:56;;;;;;;25.03;10.73;;;;;;;7.88;76.71;100329.56;5079519;28;20051;-72
2021/05/15 06:42:22;;;;;;;19.20;10.40;;;;;;;7.93;77.77;100323.78;5074263;28;20122;-72
2021/05/15 06:44:50;;;;;;;26.27;10.80;;;;;;;8.09;78.33;100323.88;5092047;28;20091;-73
2021/05/15 06:47:17;;;;;;;22.55;11.15;;;;;;;8.25;77.80;100328.47;5074328;28;20035;-73
2021/05/15 06:49:45;;;;;;;16.33;10.05;;;;;;;8.37;77.35;100326.38;5090098;28;20042;-72
2021/05/15 06:52:11;;;;;;;24.02;12.07;;;;;;;8.06;77.27;100323.38;5091662;28;20453;-72
2021/05/15 06:54:37;;;;;;;26.15;11.77;;;;;;;8.08;77.42;100330.19;5092095;28;20054;-72
2021/05/15 06:57:03;;;;;;;22.52;12.05;;;;;;;7.87;76.88;100327.06;5057436;28;20189;-72
2021/05/15 06:59:28;;;;;;;24.23;11.77;;;;;;;8.05;77.19;100327.84;5073860;28;20445;-72
2021/05/15 07:01:54;;;;;;;21.87;10.60;;;;;;;8.10;77.80;100324.69;5074054;28;20036;-73
2021/05/15 07:04:19;;;;;;;20.97;10.27;;;;;;;8.19;76.81;100340.59;5091927;28;20445;-72
2021/05/15 07:06:44;;;;;;;30.13;12.87;;;;;;;8.10;76.48;100336.19;5074125;28;20514;-72
2021/05/15 07:09:10;;;;;;;24.00;13.50;;;;;;;8.06;76.17;100324.19;5073555;28;20491;-72
2021/05/15 07:11:35;;;;;;;18.93;11.30;;;;;;;8.16;77.66;100334.72;5073927;28;20040;-72
2021/05/15 07:14:00;;;;;;;20.90;11.20;;;;;;;8.37;76.98;100321.88;5073852;28;20032;-72
2021/05/15 07:16:26;;;;;;;22.53;10.57;;;;;;;8.24;76.03;100322.31;5073868;28;20050;-72
2021/05/15 07:18:51;;;;;;;22.63;11.60;;;;;;;8.19;75.70;100329.94;5073563;28;20128;-72
2021/05/15 07:21:16;;;;;;;22.13;10.70;;;;;;;8.17;74.79;100321.28;5073816;28;20089;-72
2021/05/15 07:23:42;;;;;;;21.87;12.43;;;;;;;8.40;74.98;100321.56;5091306;28;20036;-72
2021/05/15 07:26:10;;;;;;;24.03;12.17;;;;;;;8.69;75.68;100315.06;5073052;28;20043;-72
2021/05/15 07:28:36;;;;;;;24.05;11.20;;;;;;;8.43;74.38;100315.97;5091058;28;20453;-72
2021/05/15 07:31:01;;;;;;;22.07;11.57;;;;;;;8.65;75.05;100313.72;5091442;28;20043;-72
2021/05/15 07:33:26;;;;;;;22.47;9.67;;;;;;;8.86;74.73;100314.13;5091411;28;20770;-72
2021/05/15 07:35:52;;;;;;;25.23;10.90;;;;;;;9.13;75.92;100314.88;5088500;28;20096;-73
2021/05/15 07:38:19;;;;;;;20.75;11.30;;;;;;;9.16;73.54;100314.53;5049966;28;20050;-65
2021/05/15 07:40:44;;;;;;;21.33;10.95;;;;;;;8.85;72.63;100312.47;5067598;28;20040;-65
2021/05/15 07:43:10;;;;;;;21.53;10.60;;;;;;;8.98;73.14;100311.16;5035220;28;20089;-65
2021/05/15 07:45:35;;;;;;;20.17;11.20;;;;;;;9.31;71.82;100309.38;5052223;28;20620;-65
2021/05/15 07:48:00;;;;;;;20.63;10.23;;;;;;;8.99;72.75;100316.34;5053081;28;20481;-65
2021/05/15 07:50:27;;;;;;;25.67;11.47;;;;;;;9.36;72.20;100320.38;5071000;28;20422;-65
2021/05/15 07:52:53;;;;;;;20.25;10.25;;;;;;;9.51;71.75;100316.06;5070738;28;20051;-65
2021/05/15 07:55:18;;;;;;;21.43;10.13;;;;;;;9.87;71.58;100321.03;5051857;28;20044;-65
2021/05/15 07:57:43;;;;;;;21.47;10.03;;;;;;;9.60;71.97;100329.38;5070506;28;20129;-65
2021/05/15 08:00:09;;;;;;;16.57;8.87;;;;;;;9.66;72.48;100318.06;5053240;28;20047;-65
2021/05/15 08:02:38;;;;;;;19.23;11.15;;;;;;;9.68;72.42;100319.56;5070034;28;20041;-65
2021/05/15 08:05:03;;;;;;;19.27;10.40;;;;;;;9.72;70.33;100328.06;5070772;28;20135;-65
2021/05/15 08:07:30;;;;;;;19.20;9.18;;;;;;;10.06;70.29;100325.19;5070870;28;20037;-65
2021/05/15 08:09:56;;;;;;;20.15;10.68;;;;;;;10.11;69.71;100316.69;5069764;28;20090;-65
2021/05/15 08:12:21;;;;;;;19.25;10.02;;;;;;;10.15;68.93;100326.84;5052948;28;20040;-65
2021/05/15 08:14:47;;;;;;;20.03;10.93;;;;;;;10.11;68.65;100316.69;5052886;28;20043;-65
2021/05/15 08:17:12;;;;;;;21.37;9.57;;;;;;;9.73;69.59;100319.88;5070685;28;20036;-65
2021/05/15 08:19:37;;;;;;;24.33;10.27;;;;;;;9.46;71.13;100315.75;5070514;28;20043;-65
2021/05/15 08:22:03;;;;;;;17.73;10.43;;;;;;;9.92;71.31;100315.22;5052893;28;20025;-65
2021/05/15 08:24:28;;;;;;;20.90;10.87;;;;;;;9.98;70.19;100317.22;5070534;28;20425;-65
2021/05/15 08:26:55;;;;;;;16.83;9.37;;;;;;;10.27;71.34;100313.97;5070598;28;20039;-65
2021/05/15 08:29:22;;;;;;;35.13;10.75;;;;;;;10.24;69.91;100308.16;5052532;28;20124;-65
2021/05/15 08:31:48;;;;;;;19.08;9.20;;;;;;;10.33;67.75;100312.50;5052856;28;20553;-65
2021/05/15 08:34:14;;;;;;;14.73;9.10;;;;;;;10.44;68.53;100312.13;5069582;28;20115;-65
2021/05/15 08:36:40;;;;;;;20.98;8.55;;;;;;;10.45;68.83;100308.44;5071073;28;20094;-72
2021/05/15 08:39:06;;;;;;;17.92;8.93;;;;;;;10.52;68.13;100305.94;5073871;28;20036;-72
2021/05/15 08:41:32;;;;;;;17.92;8.43;;;;;;;10.97;67.99;100304.38;5056636;28;20489;-72
2021/05/15 08:44:00;;;;;;;21.92;10.82;;;;;;;11.32;67.83;100297.63;5074163;28;20032;-65
2021/05/15 08:46:28;;;;;;;15.80;8.98;;;;;;;11.57;66.33;100297.44;5074160;28;20040;-65
2021/05/15 08:48:55;;;;;;;16.02;9.30;;;;;;;11.60;66.89;100300.59;5056160;28;20024;-65
2021/05/15 08:51:21;;;;;;;15.55;8.32;;;;;;;11.82;65.41;100309.59;5074040;28;20043;-64
2021/05/15 08:53:47;;;;;;;13.35;7.75;;;;;;;11.69;64.60;100300.53;5039761;28;20032;-64
2021/05/15 08:56:13;;;;;;;15.05;8.68;;;;;;;11.45;63.29;100307.75;5073094;28;20098;-64
2021/05/15 08:58:39;;;;;;;11.47;6.37;;;;;;;10.95;64.68;100301.03;5073626;28;20051;-64
2021/05/15 09:01:07;;;;;;;17.13;8.18;;;;;;;10.38;66.75;100312.81;5073848;28;20516;-65
2021/05/15 09:03:33;;;;;;;13.23;7.72;;;;;;;10.66;67.03;100315.06;5073569;28;20047;-64
2021/05/15 09:05:58;;;;;;;15.82;7.88;;;;;;;9.96;67.47;100313.88;5073793;28;20036;-64
2021/05/15 09:08:24;;;;;;;11.50;7.82;;;;;;;10.31;66.71;100319.84;5055819;28;20039;-64
2021/05/15 09:10:50;;;;;;;13.40;6.47;;;;;;;10.44;66.70;100314.81;5056054;28;20043;-64
2021/05/15 09:13:20;;;;;;;;;;;;;;;11.02;66.53;100311.84;5074180;28;20105;-65
2021/05/15 09:15:52;;;;;;;13.52;7.25;;;;;;;11.20;64.96;100320.44;5073596;28;20005;-65
2021/05/15 09:18:24;;;;;;;13.88;7.85;;;;;;;11.67;63.84;100311.38;5055661;28;20063;-65
2021/05/15 09:20:52;;;;;;;12.82;6.72;;;;;;;11.83;63.82;100307.75;5056021;28;20036;-64
2021/05/15 09:23:19;;;;;;;12.65;7.40;;;;;;;11.43;64.72;100307.09;5073426;28;20036;-65
2021/05/15 09:25:55;;;;;;;16.25;7.95;;;;;;;11.22;66.28;100301.56;5055916;28;20040;-64
2021/05/15 09:28:40;;;;;;;15.23;7.43;;;;;;;11.54;63.93;100308.47;5055580;28;20442;-65
2021/05/15 09:31:15;;;;;;;14.43;7.63;;;;;;;11.75;66.73;100297.97;5072515;28;20526;-64
2021/05/15 09:33:44;;;;;;;17.38;7.68;;;;;;;11.99;65.43;100296.09;5073384;28;20089;-64
2021/05/15 09:36:15;;;;;;;14.48;7.45;;;;;;;11.70;64.80;100292.31;5073344;28;20062;-65
2021/05/15 09:38:41;;;;;;;15.82;6.82;;;;;;;11.91;63.82;100298.84;5072961;28;20044;-65
2021/05/15 09:41:06;;;;;;;13.73;6.53;;;;;;;12.32;62.48;100296.56;5072997;28;20036;-65
2021/05/15 09:43:32;;;;;;;16.03;7.53;;;;;;;12.29;62.35;100291.59;5072992;28;20131;-65
2021/05/15 09:45:57;;;;;;;13.40;7.13;;;;;;;12.35;61.54;100295.38;5038824;28;20032;-65
2021/05/15 09:48:35;;;;;;;12.63;6.30;;;;;;;12.12;60.88;100290.94;5071887;28;20118;-65
2021/05/15 09:51:17;;;;;;;12.70;7.07;;;;;;;11.99;62.21;100294.25;5072079;28;20066;-64
2021/05/15 09:53:43;;;;;;;13.07;6.68;;;;;;;11.35;63.83;100294.59;5072763;28;20361;-64
2021/05/15 09:56:09;;;;;;;9.65;5.80;;;;;;;12.08;62.95;100295.00;5072908;28;20032;-65
2021/05/15 09:58:35;;;;;;;10.70;6.30;;;;;;;12.45;60.83;100286.06;5055006;28;20529;-65
2021/05/15 10:01:01;;;;;;;;;;;;;;;12.29;62.52;100288.06;5072317;28;20542;-65
2021/05/15 10:03:28;;;;;;;;;;;;;;;12.07;62.01;100284.47;5073104;28;20007;-65
2021/05/15 10:06:13;;;;;;;;;;;;;;;12.68;61.81;100280.56;5072287;28;19960;-65
2021/05/15 10:08:40;;;;;;;12.38;6.25;;;;;;;12.61;61.69;100282.31;5054754;28;19916;-65
2021/05/15 10:11:05;;;;;;;15.90;8.27;;;;;;;12.47;59.88;100277.81;5054951;28;20499;-65
2021/05/15 10:13:33;;;;;;;14.67;6.37;;;;;;;13.12;60.80;100273.41;5054949;28;20029;-65
2021/05/15 10:15:59;;;;;;;10.63;6.20;;;;;;;13.58;59.44;100275.75;5072450;28;20024;-65
2021/05/15 10:18:24;;;;;;;14.38;7.15;;;;;;;13.22;59.92;100275.78;5072196;28;20036;-65
2021/05/15 10:20:49;;;;;;;11.60;7.30;;;;;;;13.53;57.52;100267.44;5072120;28;20048;-65
2021/05/15 10:23:29;;;;;;;14.27;6.80;;;;;;;13.18;59.49;100263.78;5072116;28;20036;-65
2021/05/15 10:26:15;;;;;;;14.88;7.70;;;;;;;13.59;57.81;100265.84;5054638;28;20373;-65
2021/05/15 10:28:42;;;;;;;14.57;7.05;;;;;;;13.55;60.45;100268.06;5064103;28;20032;-65
2021/05/15 10:31:09;;;;;;;11.05;7.50;;;;;;;13.54;58.30;100263.75;5037392;28;20041;-65
2021/05/15 10:33:35;;;;;;;13.93;8.50;;;;;;;13.87;58.19;100257.78;5054475;28;20082;-65
2021/05/15 10:36:04;;;;;;;;;;;;;;;13.75;57.74;100260.19;5071585;28;20028;-65
2021/05/15 10:38:35;;;;;;;13.48;7.50;;;;;;;14.30;57.19;100258.44;5054102;28;20345;-66
2021/05/15 10:41:18;;;;;;;13.25;7.78;;;;;;;15.01;53.45;100265.38;5054280;28;20059;-66
2021/05/15 10:43:44;;;;;;;15.07;8.15;;;;;;;14.49;57.22;100254.22;5071700;28;20024;-66
2021/05/15 10:46:20;;;;;;;;;;;;;;;15.01;55.22;100248.41;5054710;28;20032;-66
2021/05/15 10:49:10;;;;;;;15.77;8.15;;;;;;;15.75;52.95;100250.16;5071665;28;19926;-66
2021/05/15 10:51:44;;;;;;;11.10;7.53;;;;;;;16.22;51.51;100248.19;5071812;28;20058;-66
2021/05/15 10:54:12;;;;;;;13.10;6.90;;;;;;;16.36;51.27;100236.34;5053892;28;20359;-66
2021/05/15 10:56:37;;;;;;;12.32;7.55;;;;;;;15.80;51.47;100234.19;5071687;28;20162;-66
2021/05/15 10:59:06;;;;;;;11.63;8.23;;;;;;;16.81;49.35;100222.06;5071214;28;20111;-66
2021/05/15 11:01:51;;;;;;;12.57;7.00;;;;;;;17.52;48.61;100226.34;5053911;28;20106;-66
2021/05/15 11:04:17;;;;;;;14.68;9.43;;;;;;;16.86;49.50;100231.16;5053357;28;20080;-66
2021/05/15 11:06:42;;;;;;;16.70;8.73;;;;;;;17.06;48.46;100222.94;5071384;28;20125;-66
2021/05/15 11:09:10;;;;;;;13.13;8.20;;;;;;;17.93;49.61;100222.25;5053731;28;20044;-66
2021/05/15 11:11:41;;;;;;;12.15;8.77;;;;;;;17.27;48.28;100221.75;5053785;28;20473;-66
2021/05/15 11:14:33;;;;;;;13.05;8.30;;;;;;;17.33;47.96;100220.06;5070364;28;20130;-66
2021/05/15 11:17:10;;;;;;;14.48;9.25;;;;;;;17.66;48.57;100219.78;5053611;28;20044;-66
2021/05/15 11:19:35;;;;;;;15.25;7.70;;;;;;;17.65;46.97;100222.69;5036945;28;20085;-66